Time;durP1;ratioP1;P1;durP2;ratioP2;P2;SDS_P1;SDS_P2;PMS_P1;PMS_P2;Temp;Humidity;BMP_temperature;BMP_pressure;BME280_temperature;BME280_humidity;BME280_pressure;Samples;Min_cycle;Max_cycle;Signal;HPM_P1;HPM_P2
2022/07/21 00:00:19;;;;;;;;;;;;;;;23.06;49.52;100813.94;7411252;19;1028;-57
2022/07/21 00:02:48;;;;;;;;;;;;;;;23.09;49.76;100803.66;7409915;19;1577;-59
2022/07/21 00:05:17;;;;;;;;;;;;;;;23.08;49.55;100802.00;7407686;19;1856;-58
2022/07/21 00:07:45;;;;;;;;;;;;;;;23.10;49.49;100802.69;7409783;19;1435;-58
2022/07/21 00:10:14;;;;;;;;;;;;;;;23.06;49.65;100800.44;7410006;19;1603;-58
2022/07/21 00:12:42;;;;;;;;;;;;;;;23.06;49.57;100797.75;7410068;19;1556;-58
2022/07/21 00:15:15;;;;;;;;;;;;;;;23.00;49.87;100802.78;7409841;19;1687;-58
2022/07/21 00:17:43;;;;;;;;;;;;;;;23.07;49.54;100799.44;7409495;19;1550;-58
2022/07/21 00:20:12;;;;;;;;;;;;;;;23.04;49.73;100808.72;7408747;19;1761;-58
2022/07/21 00:22:41;;;;;;;;;;;;;;;22.95;50.04;100802.38;7409120;19;1434;-58
2022/07/21 00:25:10;;;;;;;;;;;;;;;22.97;49.52;100778.81;7407491;19;1860;-58
2022/07/21 00:27:39;;;;;;;;;;;;;;;23.02;49.82;100800.78;7409930;19;1552;-58
2022/07/21 00:30:08;;;;;;;;;;;;;;;23.07;49.90;100804.84;7410003;19;1641;-58
2022/07/21 00:32:39;;;;;;;;;;;;;;;23.06;49.98;100786.97;7408789;19;1750;-58
2022/07/21 00:35:09;;;;;;;;;;;;;;;22.93;50.03;100785.53;7408240;19;1791;-58
2022/07/21 00:37:37;;;;;;;;;;;;;;;23.05;49.73;100791.50;7408686;19;1553;-59
2022/07/21 00:40:07;;;;;;;;;;;;;;;22.99;49.85;100792.97;7409531;19;1615;-60
2022/07/21 00:42:36;;;;;;;;;;;;;;;23.03;50.12;100788.13;7409753;19;1537;-59
2022/07/21 00:45:07;;;;;;;;;;;;;;;22.91;49.83;100790.25;7407694;19;1853;-59
2022/07/21 00:47:35;;;;;;;;;;;;;;;22.98;50.02;100787.75;7408437;19;1749;-59
2022/07/21 00:50:08;;;;;;;;;;;;;;;23.02;49.86;100786.47;7409093;19;1584;-58
2022/07/21 00:52:36;;;;;;;;;;;;;;;23.05;49.92;100790.69;7408516;19;1615;-58
2022/07/21 00:55:06;;;;;;;;;;;;;;;23.00;50.11;100778.50;7408369;19;1684;-59
2022/07/21 00:57:34;;;;;;;;;;;;;;;22.94;50.11;100784.53;7407177;19;1647;-57
2022/07/21 01:00:03;;;;;;;;;;;;;;;22.98;50.04;100780.50;7407842;19;1727;-59
2022/07/21 01:02:33;;;;;;;;;;;;;;;22.98;50.35;100785.06;7403030;19;1620;-59
2022/07/21 01:05:01;;;;;;;;;;;;;;;22.93;50.23;100785.53;7403863;19;1860;-58
2022/07/21 01:07:32;;;;;;;;;;;;;;;22.94;50.40;100771.06;7405418;19;1274;-58
2022/07/21 01:10:02;;;;;;;;;;;;;;;22.97;49.97;100786.91;7405932;19;1647;-58
2022/07/21 01:12:31;;;;;;;;;;;;;;;22.99;50.05;100781.34;7406187;19;1279;-58
2022/07/21 01:15:00;;;;;;;;;;;;;;;22.96;50.12;100768.16;7405685;19;1656;-59
2022/07/21 01:17:28;;;;;;;;;;;;;;;22.97;50.00;100786.06;7405305;19;1613;-59
2022/07/21 01:19:57;;;;;;;;;;;;;;;22.84;50.22;100784.66;7405175;19;1540;-58
2022/07/21 01:22:28;;;;;;;;;;;;;;;22.81;50.14;100776.88;7404800;19;1518;-59
2022/07/21 01:24:56;;;;;;;;;;;;;;;22.87;49.73;100759.22;7404711;19;1865;-59
2022/07/21 01:27:26;;;;;;;;;;;;;;;22.85;49.77;100785.50;7405099;19;1443;-59
2022/07/21 01:29:54;;;;;;;;;;;;;;;22.97;49.84;100784.19;7405196;19;1687;-59
2022/07/21 01:32:23;;;;;;;;;;;;;;;22.86;49.66;100778.22;7403915;19;1687;-59
2022/07/21 01:34:51;;;;;;;;;;;;;;;22.83;49.75;100774.03;7404709;19;1637;-60
2022/07/21 01:37:23;;;;;;;;;;;;;;;22.78;50.15;100779.91;7404782;19;1529;-59
2022/07/21 01:42:34;;;;;;;;;;;;;;;22.87;50.00;100798.81;7405444;19;1319;-59
2022/07/21 01:45:03;;;;;;;;;;;;;;;22.87;50.04;100793.44;7403806;19;1853;-60
2022/07/21 01:47:31;;;;;;;;;;;;;;;22.77;50.11;100788.97;7403891;19;1338;-58
2022/07/21 01:50:00;;;;;;;;;;;;;;;22.67;50.20;100792.81;7404988;19;1632;-58
2022/07/21 01:52:28;;;;;;;;;;;;;;;22.68;50.24;100794.47;7405328;19;1494;-58
2022/07/21 01:54:59;;;;;;;;;;;;;;;22.67;50.20;100784.72;7406032;19;1030;-58
2022/07/21 01:57:27;;;;;;;;;;;;;;;22.70;50.11;100796.03;7401216;19;1676;-58
2022/07/21 01:59:55;;;;;;;;;;;;;;;22.75;49.78;100795.53;7403060;19;1773;-58
2022/07/21 02:02:24;;;;;;;;;;;;;;;22.67;50.10;100787.41;7251074;19;2846009;-58
2022/07/21 02:04:52;;;;;;;;;;;;;;;22.64;50.18;100788.56;7404565;19;2002;-60
2022/07/21 02:07:21;;;;;;;;;;;;;;;22.71;49.83;100784.22;7404302;19;1542;-59
2022/07/21 02:09:49;;;;;;;;;;;;;;;22.75;49.89;100795.53;7406403;19;1605;-59
2022/07/21 02:12:20;;;;;;;;;;;;;;;22.73;50.14;100786.78;7404310;19;1343;-59
2022/07/21 02:14:49;;;;;;;;;;;;;;;22.72;50.16;100782.38;7405360;19;1631;-59
2022/07/21 02:17:18;;;;;;;;;;;;;;;22.73;50.19;100781.38;7404941;19;1535;-58
2022/07/21 02:19:46;;;;;;;;;;;;;;;22.67;50.33;100782.88;7404905;19;1407;-57
2022/07/21 02:22:15;;;;;;;;;;;;;;;22.67;50.15;100787.41;7406019;19;1619;-59
2022/07/21 02:24:43;;;;;;;;;;;;;;;22.41;50.59;100810.66;7404839;19;1857;-59
2022/07/21 02:27:12;;;;;;;;;;;;;;;22.48;50.81;100775.81;7402667;19;1451;-60
2022/07/21 02:29:43;;;;;;;;;;;;;;;22.50;50.98;100794.53;7402612;19;1382;-60
2022/07/21 02:32:11;;;;;;;;;;;;;;;22.64;50.36;100789.44;7402770;19;1362;-61
2022/07/21 02:34:40;;;;;;;;;;;;;;;22.64;50.51;100781.34;7404130;19;1448;-60
2022/07/21 02:37:08;;;;;;;;;;;;;;;22.61;50.48;100781.66;7404605;19;1437;-59
2022/07/21 02:39:37;;;;;;;;;;;;;;;22.42;50.99;100795.31;7405716;19;1024;-61
2022/07/21 02:42:06;;;;;;;;;;;;;;;22.52;50.27;100792.53;7404174;19;1691;-60
2022/07/21 02:44:35;;;;;;;;;;;;;;;22.67;50.09;100798.19;7402977;19;1854;-60
2022/07/21 02:47:07;;;;;;;;;;;;;;;22.63;50.08;100793.13;7405134;19;1632;-60
2022/07/21 02:49:35;;;;;;;;;;;;;;;22.69;50.11;100802.41;7403902;19;1678;-60
2022/07/21 02:52:04;;;;;;;;;;;;;;;22.81;50.14;100801.13;7403362;19;1647;-61
2022/07/21 02:54:32;;;;;;;;;;;;;;;22.96;49.65;100796.00;7403598;19;1366;-61
2022/07/21 02:57:00;;;;;;;;;;;;;;;23.06;49.66;100789.66;7402948;19;1434;-54
2022/07/21 02:59:29;;;;;;;;;;;;;;;23.15;49.81;100799.47;7403850;19;1303;-56
2022/07/21 03:01:57;;;;;;;;;;;;;;;23.19;49.79;100806.25;7399809;19;1663;-58
2022/07/21 03:04:28;;;;;;;;;;;;;;;23.26;50.06;100796.50;7400085;19;1624;-54
2022/07/21 03:06:57;;;;;;;;;;;;;;;23.28;50.07;100799.03;7400112;19;1853;-59
2022/07/21 03:09:25;;;;;;;;;;;;;;;23.36;50.19;100809.88;7407177;19;1683;-54
2022/07/21 03:11:54;;;;;;;;;;;;;;;23.31;50.27;100799.53;7411608;19;1687;-53
2022/07/21 03:14:22;;;;;;;;;;;;;;;23.37;50.39;100806.16;7410945;19;1606;-59
2022/07/21 03:16:51;;;;;;;;;;;;;;;23.40;50.48;100822.84;7411287;19;1549;-54
2022/07/21 03:19:20;;;;;;;;;;;;;;;23.41;50.56;100827.22;7411216;19;1630;-58
2022/07/21 03:21:51;;;;;;;;;;;;;;;23.38;50.24;100822.19;7411987;19;1565;-54
2022/07/21 03:24:19;;;;;;;;;;;;;;;23.40;50.70;100827.41;7412006;19;1532;-59
2022/07/21 03:26:48;;;;;;;;;;;;;;;23.37;50.74;100812.38;7407155;19;1882;-57
2022/07/21 03:29:16;;;;;;;;;;;;;;;23.45;50.63;100826.91;7410053;19;1351;-59
2022/07/21 03:31:45;;;;;;;;;;;;;;;23.41;50.88;100807.50;7409332;19;1204;-54
2022/07/21 03:34:13;;;;;;;;;;;;;;;23.40;50.90;100812.06;7411964;19;1508;-55
2022/07/21 03:36:42;;;;;;;;;;;;;;;23.41;50.81;100821.00;7410420;19;1632;-54
2022/07/21 03:39:13;;;;;;;;;;;;;;;23.39;50.90;100799.56;7411132;19;1506;-55
2022/07/21 03:41:41;;;;;;;;;;;;;;;23.42;50.97;100826.25;7409481;19;1719;-59
2022/07/21 03:44:09;;;;;;;;;;;;;;;23.43;50.83;100827.91;7410397;19;1532;-53
2022/07/21 03:46:38;;;;;;;;;;;;;;;23.41;51.08;100823.69;7406655;19;1889;-59
2022/07/21 03:49:06;;;;;;;;;;;;;;;23.47;50.89;100843.78;7410264;19;1628;-59
2022/07/21 03:51:35;;;;;;;;;;;;;;;23.45;50.97;100835.84;7410492;19;1528;-59
2022/07/21 03:54:03;;;;;;;;;;;;;;;23.50;51.18;100848.88;7407366;19;1536;-58
2022/07/21 03:56:34;;;;;;;;;;;;;;;23.51;50.93;100858.66;7407744;19;1626;-59
2022/07/21 03:59:03;;;;;;;;;;;;;;;23.52;51.04;100844.16;7408401;19;1256;-55
2022/07/21 04:01:31;;;;;;;;;;;;;;;23.53;50.81;100859.34;7408119;19;1489;-54
2022/07/21 04:04:00;;;;;;;;;;;;;;;23.55;50.87;100863.56;7409720;19;1309;-59
2022/07/21 04:06:28;;;;;;;;;;;;;;;23.55;51.16;100863.56;7406531;19;1865;-59
2022/07/21 04:08:57;;;;;;;;;;;;;;;23.52;50.89;100865.75;7410186;19;1520;-55
2022/07/21 04:11:25;;;;;;;;;;;;;;;23.59;51.12;100869.47;7408494;19;1302;-59
2022/07/21 04:13:56;;;;;;;;;;;;;;;23.59;51.26;100853.28;7409867;19;1372;-59
2022/07/21 04:16:24;;;;;;;;;;;;;;;23.58;51.27;100862.41;7410198;19;1493;-54
2022/07/21 04:18:53;;;;;;;;;;;;;;;23.61;51.24;100862.06;7409537;19;1498;-54
2022/07/21 04:21:21;;;;;;;;;;;;;;;23.60;51.30;100866.63;7408198;19;1530;-54
2022/07/21 04:23:49;;;;;;;;;;;;;;;23.59;51.26;100862.22;7407341;19;1419;-54
2022/07/21 04:26:18;;;;;;;;;;;;;;;23.62;51.34;100882.66;7407361;19;1860;-55
2022/07/21 04:28:46;;;;;;;;;;;;;;;23.59;51.37;100873.00;7408977;19;1501;-55
2022/07/21 04:31:17;;;;;;;;;;;;;;;23.64;51.42;100864.44;7406913;19;1537;-54
2022/07/21 04:33:46;;;;;;;;;;;;;;;23.67;51.54;100871.38;7408201;19;1614;-54
2022/07/21 04:36:14;;;;;;;;;;;;;;;23.67;51.09;100860.56;7407068;19;1608;-54
2022/07/21 04:38:43;;;;;;;;;;;;;;;23.67;51.58;100868.66;7407905;19;1338;-59
2022/07/21 04:41:11;;;;;;;;;;;;;;;23.79;51.13;100878.19;7406860;19;1323;-59
2022/07/21 04:43:39;;;;;;;;;;;;;;;23.71;51.48;100860.06;7407321;19;1373;-59
2022/07/21 04:46:08;;;;;;;;;;;;;;;23.73;51.38;100863.44;7405165;19;1875;-54
2022/07/21 04:48:39;;;;;;;;;;;;;;;23.74;51.17;100867.00;7407267;19;1199;-59
2022/07/21 04:51:07;;;;;;;;;;;;;;;23.76;51.22;100863.13;7409269;19;1695;-59
2022/07/21 04:53:36;;;;;;;;;;;;;;;23.79;51.40;100865.50;7408292;19;1616;-54
2022/07/21 04:56:05;;;;;;;;;;;;;;;23.78;51.44;100874.63;7407615;19;1505;-59
2022/07/21 04:58:33;;;;;;;;;;;;;;;23.82;51.26;100876.00;7406340;19;1545;-55
2022/07/21 05:01:01;;;;;;;;;;;;;;;23.82;51.26;100878.69;7402759;19;1502;-54
2022/07/21 05:03:30;;;;;;;;;;;;;;;23.86;51.41;100875.69;7403791;19;1367;-54
2022/07/21 05:06:01;;;;;;;;;;;;;;;23.89;51.45;100878.88;7405517;19;1855;-55
2022/07/21 05:08:29;;;;;;;;;;;;;;;23.92;51.35;100889.34;7408274;19;1635;-59
2022/07/21 05:10:58;;;;;;;;;;;;;;;23.92;51.55;100888.53;7406096;19;1541;-55
2022/07/21 05:13:26;;;;;;;;;;;;;;;23.94;51.46;100873.84;7406428;19;1590;-54
2022/07/21 05:15:54;;;;;;;;;;;;;;;23.93;51.32;100874.00;7407316;19;1529;-55
2022/07/21 05:18:23;;;;;;;;;;;;;;;23.93;51.30;100882.09;7404416;19;1526;-54
2022/07/21 05:20:51;;;;;;;;;;;;;;;23.95;51.37;100880.06;7406147;19;1415;-54
2022/07/21 05:23:22;;;;;;;;;;;;;;;23.95;51.36;100886.31;7407403;19;1369;-59
2022/07/21 05:25:51;;;;;;;;;;;;;;;23.95;51.69;100880.06;7405924;19;1859;-59
2022/07/21 05:28:19;;;;;;;;;;;;;;;23.94;51.58;100873.84;7406889;19;1360;-59
2022/07/21 05:30:48;;;;;;;;;;;;;;;23.97;51.35;100891.56;7407065;19;1746;-54
2022/07/21 05:33:16;;;;;;;;;;;;;;;23.96;51.52;100892.59;7405429;19;1528;-54
2022/07/21 05:35:45;;;;;;;;;;;;;;;23.96;51.75;100892.59;7407775;19;1536;-59
2022/07/21 05:38:13;;;;;;;;;;;;;;;23.93;51.41;100882.94;7406707;19;1924;-59
2022/07/21 05:40:44;;;;;;;;;;;;;;;23.94;51.82;100892.75;7406664;19;1605;-59
2022/07/21 05:43:13;;;;;;;;;;;;;;;23.93;51.83;100892.91;7406490;19;1252;-60
2022/07/21 05:45:41;;;;;;;;;;;;;;;23.93;52.01;100892.91;7405944;19;1861;-54
2022/07/21 05:48:10;;;;;;;;;;;;;;;23.96;51.88;100919.59;7407096;19;1427;-55
2022/07/21 05:50:38;;;;;;;;;;;;;;;23.92;52.12;100902.03;7404635;19;1378;-59
2022/07/21 05:53:07;;;;;;;;;;;;;;;23.90;51.80;100904.03;7403649;19;1683;-55
2022/07/21 05:55:35;;;;;;;;;;;;;;;23.88;52.16;100882.59;7405262;19;1288;-54
2022/07/21 05:58:07;;;;;;;;;;;;;;;23.89;51.97;100903.19;7404228;19;1619;-54
2022/07/21 06:00:35;;;;;;;;;;;;;;;23.90;51.92;100893.25;7403615;19;1701;-54
2022/07/21 06:03:04;;;;;;;;;;;;;;;23.90;52.17;100893.25;7407555;19;1023;-59
2022/07/21 06:05:32;;;;;;;;;;;;;;;23.96;52.12;100912.31;7405583;19;1773;-55
2022/07/21 06:08:01;;;;;;;;;;;;;;;23.87;52.15;100905.19;7404116;19;1864;-55
2022/07/21 06:10:30;;;;;;;;;;;;;;;23.95;52.19;100893.56;7405102;19;1711;-60
2022/07/21 06:12:58;;;;;;;;;;;;;;;23.91;52.43;100894.91;7403660;19;1344;-55
2022/07/21 06:15:30;;;;;;;;;;;;;;;23.92;52.30;100894.75;7406488;19;1506;-54
2022/07/21 06:17:58;;;;;;;;;;;;;;;23.97;51.95;100900.53;7404430;19;1546;-59
2022/07/21 06:20:26;;;;;;;;;;;;;;;23.93;52.31;100893.72;7405203;19;1336;-55
2022/07/21 06:22:55;;;;;;;;;;;;;;;23.96;52.12;100897.97;7403218;19;1302;-54
2022/07/21 06:25:23;;;;;;;;;;;;;;;23.96;52.09;100904.22;7405990;19;1527;-54
2022/07/21 06:27:52;;;;;;;;;;;;;;;23.96;52.06;100882.63;7403229;19;1849;-59
2022/07/21 06:30:20;;;;;;;;;;;;;;;24.00;52.24;100883.97;7405453;19;1541;-54
2022/07/21 06:32:51;;;;;;;;;;;;;;;23.95;52.43;100878.22;7405202;19;1446;-55
2022/07/21 06:35:20;;;;;;;;;;;;;;;23.97;52.09;100886.16;7404116;19;1711;-59
2022/07/21 06:37:49;;;;;;;;;;;;;;;23.99;52.36;100892.22;7404781;19;1688;-60
2022/07/21 06:40:17;;;;;;;;;;;;;;;24.02;52.29;100897.31;7404581;19;1627;-55
2022/07/21 06:42:46;;;;;;;;;;;;;;;24.02;52.34;100897.31;7404067;19;1545;-60
2022/07/21 06:45:14;;;;;;;;;;;;;;;23.99;52.44;100889.53;7405384;19;1767;-54
2022/07/21 06:47:43;;;;;;;;;;;;;;;23.98;52.26;100879.75;7403406;19;1864;-55
2022/07/21 06:50:14;;;;;;;;;;;;;;;23.95;52.45;100877.38;7404160;19;1298;-54
2022/07/21 06:52:43;;;;;;;;;;;;;;;23.97;52.28;100884.31;7401409;19;1312;-55
2022/07/21 06:55:12;;;;;;;;;;;;;;;23.99;52.39;100889.53;7404589;19;1588;-55
2022/07/21 06:57:40;;;;;;;;;;;;;;;23.98;52.28;100879.75;7403954;19;1573;-56
2022/07/21 07:00:10;;;;;;;;;;;;;;;23.99;52.27;100881.44;7404307;19;1442;-54
2022/07/21 07:02:38;;;;;;;;;;;;;;;24.00;52.42;100883.13;7403125;19;1564;-60
2022/07/21 07:05:07;;;;;;;;;;;;;;;23.98;52.61;100864.38;7402817;19;1509;-59
2022/07/21 07:07:39;;;;;;;;;;;;;;;23.97;52.44;100878.91;7402095;19;1850;-59
2022/07/21 07:10:08;;;;;;;;;;;;;;;23.96;52.54;100861.00;7402374;19;1275;-55
2022/07/21 07:12:37;;;;;;;;;;;;;;;23.99;52.82;100858.00;7404194;19;1509;-54
2022/07/21 07:15:05;;;;;;;;;;;;;;;24.03;52.51;100855.78;7403603;19;1540;-54
2022/07/21 07:17:34;;;;;;;;;;;;;;;23.98;52.51;100844.63;7403800;19;1719;-55
2022/07/21 07:20:03;;;;;;;;;;;;;;;23.99;52.58;100859.81;7404277;19;1332;-55
2022/07/21 07:22:32;;;;;;;;;;;;;;;23.99;52.58;100835.50;7403387;19;1545;-59
2022/07/21 07:25:03;;;;;;;;;;;;;;;24.03;52.44;100836.88;7404427;19;1345;-60
2022/07/21 07:27:31;;;;;;;;;;;;;;;24.01;52.41;100847.00;7402034;19;1857;-56
2022/07/21 07:30:00;;;;;;;;;;;;;;;24.05;52.59;100847.50;7402893;19;1670;-54
2022/07/21 07:32:28;;;;;;;;;;;;;;;24.03;52.88;100839.56;7403421;19;1292;-60
2022/07/21 07:34:56;;;;;;;;;;;;;;;24.04;52.77;100830.47;7403226;19;1532;-55
2022/07/21 07:37:25;;;;;;;;;;;;;;;24.05;52.63;100840.25;7402250;19;1715;-54
2022/07/21 07:39:53;;;;;;;;;;;;;;;24.04;52.73;100832.31;7403288;19;1263;-59
2022/07/21 07:42:24;;;;;;;;;;;;;;;24.02;52.68;100832.50;7401528;19;1537;-55
2022/07/21 07:44:53;;;;;;;;;;;;;;;24.01;52.91;100826.25;7402679;19;1301;-54
2022/07/21 07:47:22;;;;;;;;;;;;;;;24.02;52.75;100837.88;7402299;19;1863;-55
2022/07/21 07:49:52;;;;;;;;;;;;;;;24.08;52.70;100844.47;7403152;19;1628;-54
2022/07/21 07:52:21;;;;;;;;;;;;;;;24.01;52.69;100830.78;7402336;19;1520;-55
2022/07/21 07:54:49;;;;;;;;;;;;;;;24.00;52.75;100831.81;7401787;19;1377;-59
2022/07/21 07:57:18;;;;;;;;;;;;;;;24.03;52.92;100834.16;7408731;19;1438;-55
2022/07/21 07:59:49;;;;;;;;;;;;;;;24.04;52.61;100816.13;7409396;19;1687;-59
2022/07/21 08:02:17;;;;;;;;;;;;;;;24.02;52.97;100833.31;7407265;19;1659;-59
2022/07/21 08:04:46;;;;;;;;;;;;;;;24.04;52.88;100822.34;7409361;19;1560;-60
2022/07/21 08:07:14;;;;;;;;;;;;;;;24.04;53.05;100819.66;7406288;19;1859;-55
2022/07/21 08:09:43;;;;;;;;;;;;;;;24.02;53.18;100808.19;7410533;19;1475;-59
2022/07/21 08:12:11;;;;;;;;;;;;;;;24.04;53.10;100830.47;7407507;19;1758;-54
2022/07/21 08:14:40;;;;;;;;;;;;;;;24.02;52.95;100817.13;7406498;19;1667;-56
2022/07/21 08:17:11;;;;;;;;;;;;;;;24.03;53.16;100820.66;7409186;19;1708;-59
2022/07/21 08:19:39;;;;;;;;;;;;;;;24.03;52.86;100820.66;7407663;19;1395;-60
2022/07/21 08:22:07;;;;;;;;;;;;;;;24.07;53.20;100813.91;7408873;19;1235;-59
2022/07/21 08:24:36;;;;;;;;;;;;;;;24.04;52.97;100814.25;7410369;19;949;-60
2022/07/21 08:27:05;;;;;;;;;;;;;;;24.05;53.08;100804.28;7406414;19;1850;-55
2022/07/21 08:29:33;;;;;;;;;;;;;;;24.05;53.25;100796.19;7406234;19;1510;-55
2022/07/21 08:32:02;;;;;;;;;;;;;;;24.06;53.33;100806.81;7408298;19;1537;-59
2022/07/21 08:34:33;;;;;;;;;;;;;;;24.05;52.92;100799.72;7408190;19;1528;-60
2022/07/21 08:37:01;;;;;;;;;;;;;;;24.05;53.26;100815.94;7408754;19;1284;-54
2022/07/21 08:39:30;;;;;;;;;;;;;;;24.08;53.33;100812.06;7407900;19;1424;-59
2022/07/21 08:41:59;;;;;;;;;;;;;;;24.05;52.99;100805.13;7408683;19;1540;-54
2022/07/21 08:44:27;;;;;;;;;;;;;;;24.04;53.17;100806.16;7408069;19;1458;-54
2022/07/21 08:46:56;;;;;;;;;;;;;;;24.07;53.52;100797.69;7406161;19;1865;-60
2022/07/21 08:49:25;;;;;;;;;;;;;;;24.04;53.27;100808.84;7406563;19;1543;-55
2022/07/21 08:51:56;;;;;;;;;;;;;;;24.05;53.39;100810.53;7408075;19;1620;-59
2022/07/21 08:54:24;;;;;;;;;;;;;;;24.01;53.21;100791.13;7407609;19;1615;-54
2022/07/21 08:56:53;;;;;;;;;;;;;;;24.02;53.38;100806.31;7405167;19;1765;-59
2022/07/21 08:59:22;;;;;;;;;;;;;;;24.01;53.55;100777.63;7407563;19;1340;-55
2022/07/21 09:01:50;;;;;;;;;;;;;;;24.04;53.29;100808.84;7407521;19;1671;-60
2022/07/21 09:04:22;;;;;;;;;;;;;;;24.04;53.27;100791.81;7406473;19;1540;-60
2022/07/21 09:07:01;;;;;;;;;;;;;;;24.04;53.53;100800.75;7404530;19;1858;-54
2022/07/21 09:09:30;;;;;;;;;;;;;;;24.09;53.63;100795.66;7405883;19;1785;-55
2022/07/21 09:11:59;;;;;;;;;;;;;;;24.05;53.35;100793.47;7404748;19;1711;-54
2022/07/21 09:14:29;;;;;;;;;;;;;;;24.08;53.42;100799.41;7407967;19;1564;-59
2022/07/21 09:16:58;;;;;;;;;;;;;;;24.08;53.53;100788.59;7406165;19;1346;-54
2022/07/21 09:19:28;;;;;;;;;;;;;;;24.09;53.39;100789.44;7407218;19;1549;-59
2022/07/21 09:21:57;;;;;;;;;;;;;;;24.04;53.61;100779.13;7406561;19;1675;-54
2022/07/21 09:24:29;;;;;;;;;;;;;;;24.07;53.61;100786.88;7408152;19;1564;-59
2022/07/21 09:27:08;;;;;;;;;;;;;;;24.07;53.43;100781.47;7406926;19;1837;-54
2022/07/21 09:29:39;;;;;;;;;;;;;;;24.03;53.59;100777.44;7407938;19;1351;-54
2022/07/21 09:32:22;;;;;;;;;;;;;;;24.10;53.71;100781.16;7406611;19;1762;-59
2022/07/21 09:34:51;;;;;;;;;;;;;;;24.05;53.39;100771.88;7406639;19;1682;-55
2022/07/21 09:37:19;;;;;;;;;;;;;;;24.03;53.52;100769.34;7406152;19;1647;-54
2022/07/21 09:39:52;;;;;;;;;;;;;;;24.07;53.53;100770.69;7406140;19;1198;-59
2022/07/21 09:42:22;;;;;;;;;;;;;;;24.08;53.55;100775.09;7404359;19;1485;-59
2022/07/21 09:44:52;;;;;;;;;;;;;;;24.06;53.47;100755.50;7405779;19;1323;-55
2022/07/21 09:47:22;;;;;;;;;;;;;;;24.07;53.71;100770.69;7404075;19;1849;-53
2022/07/21 09:49:50;;;;;;;;;;;;;;;24.03;53.80;100747.72;7405485;19;1328;-54
2022/07/21 09:52:29;;;;;;;;;;;;;;;24.09;53.66;100748.91;7405738;19;1607;-55
2022/07/21 09:55:07;;;;;;;;;;;;;;;24.10;53.33;100750.59;7406990;19;947;-60
2022/07/21 09:57:36;;;;;;;;;;;;;;;24.07;53.67;100759.88;7405212;19;1608;-59
2022/07/21 10:00:06;;;;;;;;;;;;;;;24.07;53.72;100749.06;7405912;19;1742;-59
2022/07/21 10:02:35;;;;;;;;;;;;;;;24.10;53.69;100764.94;7404050;19;1513;-59
2022/07/21 10:05:06;;;;;;;;;;;;;;;24.08;53.90;100750.78;7406148;19;1343;-59
2022/07/21 10:07:35;;;;;;;;;;;;;;;24.07;53.97;100754.47;7405279;19;1859;-59
2022/07/21 10:10:07;;;;;;;;;;;;;;;24.11;53.82;100750.41;7407135;19;979;-54
2022/07/21 10:12:36;;;;;;;;;;;;;;;24.15;53.68;100759.91;7405999;19;1589;-59
2022/07/21 10:15:05;;;;;;;;;;;;;;;24.11;53.63;100744.16;7405325;19;1674;-59
2022/07/21 10:17:33;;;;;;;;;;;;;;;24.09;53.63;100730.81;7404480;19;1643;-59
2022/07/21 10:20:06;;;;;;;;;;;;;;;24.06;53.70;100728.47;7405582;19;1608;-59
2022/07/21 10:22:43;;;;;;;;;;;;;;;24.07;53.97;100737.44;7404315;19;1556;-59
2022/07/21 10:25:14;;;;;;;;;;;;;;;24.09;53.63;100728.13;7405727;19;1608;-54
2022/07/21 10:28:02;;;;;;;;;;;;;;;24.11;53.80;100739.59;7405562;19;1866;-59
2022/07/21 10:30:39;;;;;;;;;;;;;;;24.12;53.63;100732.38;7404070;19;2429;-59
2022/07/21 10:33:07;;;;;;;;;;;;;;;24.09;53.85;100727.28;7405376;19;1188;-59
2022/07/21 10:35:36;;;;;;;;;;;;;;;24.16;53.85;100752.63;7403952;19;1805;-55
2022/07/21 10:38:05;;;;;;;;;;;;;;;24.10;53.62;100740.63;7405235;19;1536;-54
2022/07/21 10:40:39;;;;;;;;;;;;;;;24.16;53.65;100750.75;7404678;19;1336;-59
2022/07/21 10:43:22;;;;;;;;;;;;;;;24.08;54.09;100712.94;7404820;19;1337;-58
2022/07/21 10:45:51;;;;;;;;;;;;;;;24.10;54.02;100719.03;7404497;19;1355;-54
2022/07/21 10:48:34;;;;;;;;;;;;;;;24.11;53.95;100723.41;7403983;19;1871;-59
2022/07/21 10:51:04;;;;;;;;;;;;;;;24.12;53.67;100724.25;7403857;19;1485;-55
2022/07/21 10:53:33;;;;;;;;;;;;;;;24.12;53.98;100718.84;7406003;19;923;-54
2022/07/21 10:56:04;;;;;;;;;;;;;;;24.18;53.93;100721.72;7401679;19;1502;-54
2022/07/21 10:58:34;;;;;;;;;;;;;;;24.12;53.94;100714.28;7402445;19;1537;-59
2022/07/21 11:01:02;;;;;;;;;;;;;;;24.14;53.59;100725.78;7403353;19;1634;-59
2022/07/21 11:03:32;;;;;;;;;;;;;;;24.12;53.82;100711.59;7404290;19;1631;-55
2022/07/21 11:06:16;;;;;;;;;;;;;;;24.12;53.93;100708.88;7404423;19;1627;-60
2022/07/21 11:08:46;;;;;;;;;;;;;;;24.14;53.98;100709.56;7403589;19;1864;-60
2022/07/21 11:11:18;;;;;;;;;;;;;;;24.13;53.94;100710.59;7404000;19;1572;-59
2022/07/21 11:14:01;;;;;;;;;;;;;;;24.15;54.11;100696.88;7404702;19;1211;-59
2022/07/21 11:16:54;;;;;;;;;;;;;;;24.14;53.99;100706.03;7404313;19;1627;-60
2022/07/21 11:19:33;;;;;;;;;;;;;;;24.13;53.99;100710.59;7401895;19;1537;-54
2022/07/21 11:22:03;;;;;;;;;;;;;;;24.16;54.03;100707.53;7402970;19;1537;-59
2022/07/21 11:24:31;;;;;;;;;;;;;;;24.19;54.08;100718.00;7402741;19;1372;-55
2022/07/21 11:27:04;;;;;;;;;;;;;;;24.18;53.85;100719.00;7403128;19;1584;-54
2022/07/21 11:29:33;;;;;;;;;;;;;;;24.15;54.07;100708.56;7401727;19;1809;-59
2022/07/21 11:32:03;;;;;;;;;;;;;;;24.15;53.98;100707.69;7411432;19;1517;-59
2022/07/21 11:34:41;;;;;;;;;;;;;;;24.17;54.12;100708.38;7410371;19;1559;-54
2022/07/21 11:37:10;;;;;;;;;;;;;;;24.17;54.10;100706.53;7409885;19;1631;-60
2022/07/21 11:39:39;;;;;;;;;;;;;;;24.16;54.04;100704.81;7411754;19;947;-59
2022/07/21 11:42:12;;;;;;;;;;;;;;;24.18;54.14;100707.38;7409830;19;1510;-54
2022/07/21 11:44:41;;;;;;;;;;;;;;;24.20;54.17;100695.38;7409928;19;1215;-54
2022/07/21 11:47:12;;;;;;;;;;;;;;;24.18;54.13;100707.38;7410025;19;1588;-59
2022/07/21 11:49:41;;;;;;;;;;;;;;;24.14;54.35;100693.34;7407382;19;1865;-54
2022/07/21 11:52:10;;;;;;;;;;;;;;;24.19;54.15;100701.78;7410535;19;1278;-58
2022/07/21 11:54:40;;;;;;;;;;;;;;;24.19;54.19;100687.41;7410628;19;1233;-59
2022/07/21 11:57:11;;;;;;;;;;;;;;;24.20;53.92;100700.75;7408660;19;1485;-58
2022/07/21 11:59:40;;;;;;;;;;;;;;;24.19;54.12;100682.03;7410327;19;1545;-56
2022/07/21 12:02:10;;;;;;;;;;;;;;;24.18;54.30;100692.00;7405852;19;1396;-59
2022/07/21 12:04:41;;;;;;;;;;;;;;;24.18;54.21;100678.47;7409311;19;1631;-54
2022/07/21 12:07:14;;;;;;;;;;;;;;;24.22;53.99;100690.63;7410019;19;1538;-55
2022/07/21 12:09:43;;;;;;;;;;;;;;;24.23;54.04;100694.16;7409510;19;1832;-54
2022/07/21 12:12:14;;;;;;;;;;;;;;;24.19;53.91;100688.28;7408309;19;1667;-59
2022/07/21 12:14:50;;;;;;;;;;;;;;;24.21;54.36;100699.75;7409958;19;1532;-59
2022/07/21 12:17:33;;;;;;;;;;;;;;;24.24;54.19;100692.34;7409267;19;1711;-60
2022/07/21 12:20:02;;;;;;;;;;;;;;;24.22;54.26;100681.69;7409689;19;1516;-59
2022/07/21 12:22:37;;;;;;;;;;;;;;;24.24;54.04;100684.22;7409401;19;1577;-54
2022/07/21 12:25:08;;;;;;;;;;;;;;;24.20;54.45;100679.16;7410488;19;1584;-54
2022/07/21 12:27:41;;;;;;;;;;;;;;;24.24;54.00;100689.63;7408717;19;1526;-54
2022/07/21 12:30:11;;;;;;;;;;;;;;;24.22;54.14;100696.03;7406698;19;1849;-59
2022/07/21 12:32:44;;;;;;;;;;;;;;;24.21;54.41;100686.25;7407326;19;1519;-55
2022/07/21 12:35:20;;;;;;;;;;;;;;;24.21;54.29;100677.28;7407051;19;1258;-55
2022/07/21 12:37:55;;;;;;;;;;;;;;;24.24;54.26;100690.47;7408225;19;1863;-54
2022/07/21 12:40:25;;;;;;;;;;;;;;;24.24;54.27;100689.63;7407614;19;1415;-53
2022/07/21 12:43:05;;;;;;;;;;;;;;;24.24;54.42;100668.00;7407344;19;1364;-59
2022/07/21 12:45:33;;;;;;;;;;;;;;;24.30;54.29;100683.53;7409688;19;1623;-59
2022/07/21 12:48:08;;;;;;;;;;;;;;;24.24;54.08;100659.91;7409831;19;1854;-59
2022/07/21 12:50:39;;;;;;;;;;;;;;;24.28;54.30;100663.94;7408843;19;1982;-58
2022/07/21 12:53:07;;;;;;;;;;;;;;;24.31;54.21;100666.28;7407261;19;1703;-59
2022/07/21 12:55:36;;;;;;;;;;;;;;;24.27;54.19;100656.84;7407581;19;1355;-59
2022/07/21 12:58:07;;;;;;;;;;;;;;;24.25;54.32;100650.75;7406535;19;1419;-54
2022/07/21 13:00:35;;;;;;;;;;;;;;;24.27;54.25;100646.03;7408490;19;1540;-64
2022/07/21 13:03:04;;;;;;;;;;;;;;;24.29;54.04;100646.69;7409519;19;968;-59